Vremea acum in Galati - Romania

Vrei sa afli care e starea vremii acum in Galati - Romania? Dorim sa iti furnizam starea vremii pentru Galati - Romania. Starea vremii Galati - Romania pentru astazi.

Vremea acum in Galati

Temperatura: 22.6 °C

Se simte ca: 25.7 °C
Innorat: 38 %
Precipitatii: 21 %
Presiune atmosferica: 1014 hPa
Umiditate: 69%
Vizibilitate: 20 km
Vantul bate din SW cu 7.2 km/h

Evolutia vremii in Galati pe ore

Ora: 03:00
Ploi pe porţiuni în apropiere
Temperatura: 21.5°C
Sansa de precipitatii: 21%
Ora Descriere Temp Se simte Precipitatii Umiditate Vant
00:00Parțial noros23.4°27°51%67%SE 9.7 KM/H
01:00Ploi pe porţiuni în apropiere22.6°25.7°26%69%SW 7.2 KM/H
02:00Parțial noros21.8°21.8°0%70%NW 4.3 KM/H
03:00Ploi pe porţiuni în apropiere21.5°21.5°21%73%SSW 7.2 KM/H
04:00Parțial noros21.1°21.1°42%75%ESE 9.7 KM/H
05:00Ploi pe porţiuni în apropiere20.8°20.8°63%77%N 12.6 KM/H
06:00Ploi pe porţiuni în apropiere22.7°23.1°64%72%N 13 KM/H
07:00Ploi pe porţiuni în apropiere24.5°25.4°66%67%NNE 13 KM/H
08:00Ploi pe porţiuni în apropiere26.4°27.7°67%61%NNE 13.3 KM/H
09:00Parțial noros28°29°45%54%NNE 13.3 KM/H
10:00Ploi pe porţiuni în apropiere29.5°30.3°22%47%NE 13 KM/H
11:00Parțial noros31.1°31.6°0%40%NE 13 KM/H
12:00Parțial noros31.7°31.8°0%37%E 13 KM/H
13:00Parțial noros32.3°32.1°0%33%ESE 12.6 KM/H
14:00Parțial noros32.9°32.3°0%30%SE 12.6 KM/H
15:00Parțial noros32.5°32°0%31%SE 12.2 KM/H
16:00Parțial noros32.1°31.7°0%32%SSE 11.5 KM/H
17:00Parțial noros31.7°31.4°0%34%SSE 11.2 KM/H
18:00Parțial noros30.7°31.5°0%41%SE 11.9 KM/H
19:00Parțial noros29.7°31.6°0%49%ESE 13 KM/H
20:00Parțial noros28.7°31.7°0%57%ESE 13.7 KM/H
21:00Parțial noros27.3°29.7°0%55%SSE 11.2 KM/H
22:00Parțial noros26°27.7°0%54%SSW 8.3 KM/H
23:00Parțial noros24.6°25.7°0%53%WSW 5.8 KM/H